Time,TemperatureF,DewpointF,PressureIn,WindDirection,WindDirectionDegrees,WindSpeedMPH,WindSpeedGustMPH,Humidity,HourlyPrecipIn,Conditions,Clouds,dailyrainin,SoftwareType,DateUTC
2013-03-02 00:05:00,11.8,0.2,30.20,ENE,63,0.0,0.0,59,0.00,CLR,,0.00,WeatherDisplay:10.37,2013-03-02 06:05:00,
2013-03-02 00:10:00,11.7,0.1,30.20,ENE,63,0.0,0.0,59,0.00,CLR,,0.00,WeatherDisplay:10.37,2013-03-02 06:10:00,
2013-03-02 00:15:00,11.3,-0.3,30.20,ENE,63,0.0,0.0,59,0.00,CLR,,0.00,WeatherDisplay:10.37,2013-03-02 06:15:00,
2013-03-02 00:20:00,10.9,-0.6,30.20,ENE,63,0.0,0.0,59,0.00,CLR,,0.00,WeatherDisplay:10.37,2013-03-02 06:20:00,
2013-03-02 00:25:00,10.4,-1.1,30.20,ENE,63,0.0,0.0,59,0.00,CLR,,0.00,WeatherDisplay:10.37,2013-03-02 06:25:00,
2013-03-02 00:31:00,10.0,-1.5,30.20,ENE,63,0.0,0.0,59,0.00,CLR,,0.00,WeatherDisplay:10.37,2013-03-02 06:31:00,
2013-03-02 00:36:00,9.7,-1.8,30.20,ENE,63,0.0,0.0,59,0.00,CLR,,0.00,WeatherDisplay:10.37,2013-03-02 06:36:00,
2013-03-02 00:41:00,9.5,-2.0,30.20,ENE,63,0.0,0.0,59,0.00,CLR,,0.00,WeatherDisplay:10.37,2013-03-02 06:41:00,
2013-03-02 00:46:00,9.3,-2.1,30.20,ENE,63,0.0,0.0,59,0.00,CLR,,0.00,WeatherDisplay:10.37,2013-03-02 06:46:00,
2013-03-02 00:51:00,9.0,-2.5,30.20,ENE,63,0.0,0.0,59,0.00,CLR,,0.00,WeatherDisplay:10.37,2013-03-02 06:51:00,
2013-03-02 00:57:00,8.6,-2.8,30.20,ENE,63,0.0,0.0,59,0.00,CLR,,0.00,WeatherDisplay:10.37,2013-03-02 06:57:00,
2013-03-02 01:02:00,8.4,-3.0,30.20,ENE,63,0.0,0.0,59,0.00,CLR,,0.00,WeatherDisplay:10.37,2013-03-02 07:02:00,
2013-03-02 01:07:00,8.1,-3.3,30.20,ENE,63,0.0,0.0,59,0.00,CLR,,0.00,WeatherDisplay:10.37,2013-03-02 07:07:00,
2013-03-02 01:12:00,7.7,-3.7,30.20,ENE,63,0.0,0.0,59,0.00,CLR,,0.00,WeatherDisplay:10.37,2013-03-02 07:12:00,
2013-03-02 01:17:00,7.5,-3.8,30.20,ENE,63,0.0,0.0,59,0.00,CLR,,0.00,WeatherDisplay:10.37,2013-03-02 07:17:00,
2013-03-02 01:22:00,7.3,-4.0,30.20,ENE,63,0.0,0.0,59,0.00,CLR,,0.00,WeatherDisplay:10.37,2013-03-02 07:22:00,
2013-03-02 01:28:00,7.0,-4.3,30.20,ENE,63,0.0,0.0,59,0.00,CLR,,0.00,WeatherDisplay:10.37,2013-03-02 07:28:00,
2013-03-02 01:33:00,6.8,-4.5,30.20,ENE,63,0.0,0.0,59,0.00,CLR,,0.00,WeatherDisplay:10.37,2013-03-02 07:33:00,
2013-03-02 01:38:00,6.8,-4.5,30.20,ENE,63,0.0,0.0,59,0.00,CLR,,0.00,WeatherDisplay:10.37,2013-03-02 07:38:00,
2013-03-02 01:43:00,6.6,-4.7,30.20,ENE,63,0.0,0.0,59,0.00,CLR,,0.00,WeatherDisplay:10.37,2013-03-02 07:43:00,
2013-03-02 01:48:00,6.6,-4.7,30.20,ENE,63,0.0,0.0,59,0.00,CLR,,0.00,WeatherDisplay:10.37,2013-03-02 07:48:00,
2013-03-02 01:54:00,6.3,-5.0,30.20,ENE,63,0.0,0.0,59,0.00,CLR,,0.00,WeatherDisplay:10.37,2013-03-02 07:54:00,
2013-03-02 01:59:00,6.1,-5.2,30.20,ENE,63,0.0,0.0,59,0.00,CLR,,0.00,WeatherDisplay:10.37,2013-03-02 07:59:00,
2013-03-02 02:04:00,6.1,-5.2,30.20,ENE,63,0.0,0.0,59,0.00,CLR,,0.00,WeatherDisplay:10.37,2013-03-02 08:04:00,
2013-03-02 02:09:00,5.9,-5.4,30.20,ENE,63,0.0,0.0,59,0.00,CLR,,0.00,WeatherDisplay:10.37,2013-03-02 08:09:00,
2013-03-02 02:14:00,5.5,-5.7,30.20,ENE,63,0.0,0.0,59,0.00,CLR,,0.00,WeatherDisplay:10.37,2013-03-02 08:14:00,
2013-03-02 02:19:00,5.4,-5.9,30.20,ENE,63,0.0,0.0,59,0.00,CLR,,0.00,WeatherDisplay:10.37,2013-03-02 08:19:00,
2013-03-02 02:24:00,5.4,-5.9,30.20,ENE,63,0.0,0.0,59,0.00,CLR,,0.00,WeatherDisplay:10.37,2013-03-02 08:24:00,
2013-03-02 02:30:00,5.2,-6.1,30.20,ENE,63,0.0,0.0,59,0.00,CLR,,0.00,WeatherDisplay:10.37,2013-03-02 08:30:00,
2013-03-02 02:35:00,5.0,-6.2,30.20,ENE,63,0.0,0.0,59,0.00,CLR,,0.00,WeatherDisplay:10.37,2013-03-02 08:35:00,
2013-03-02 02:40:00,4.8,-6.4,30.20,ENE,63,0.0,0.0,59,0.00,CLR,,0.00,WeatherDisplay:10.37,2013-03-02 08:40:00,
2013-03-02 02:45:00,4.5,-6.7,30.20,ENE,63,0.0,0.0,59,0.00,CLR,,0.00,WeatherDisplay:10.37,2013-03-02 08:45:00,
2013-03-02 02:50:00,4.3,-6.9,30.20,ENE,63,0.0,0.0,59,0.00,CLR,,0.00,WeatherDisplay:10.37,2013-03-02 08:50:00,
2013-03-02 02:56:00,4.1,-7.1,30.20,ENE,63,0.0,0.0,59,0.00,CLR,,0.00,WeatherDisplay:10.37,2013-03-02 08:56:00,
2013-03-02 03:01:00,4.1,-7.1,30.20,ENE,63,0.0,0.0,59,0.00,CLR,,0.00,WeatherDisplay:10.37,2013-03-02 09:01:00,
2013-03-02 03:06:00,3.7,-7.4,30.20,ENE,63,0.0,0.0,59,0.00,CLR,,0.00,WeatherDisplay:10.37,2013-03-02 09:06:00,
2013-03-02 03:11:00,3.6,-7.6,30.20,ENE,63,0.0,0.0,59,0.00,CLR,,0.00,WeatherDisplay:10.37,2013-03-02 09:11:00,
2013-03-02 03:16:00,3.2,-7.9,30.20,ENE,63,0.0,0.0,59,0.00,CLR,,0.00,WeatherDisplay:10.37,2013-03-02 09:16:00,
2013-03-02 03:21:00,3.2,-7.9,30.20,ENE,63,0.0,0.0,59,0.00,CLR,,0.00,WeatherDisplay:10.37,2013-03-02 09:21:00,
2013-03-02 03:26:00,3.2,-7.9,30.20,ENE,63,0.0,0.0,59,0.00,CLR,,0.00,WeatherDisplay:10.37,2013-03-02 09:26:00,
2013-03-02 03:32:00,2.8,-8.3,30.20,ENE,63,0.0,0.0,59,0.00,CLR,,0.00,WeatherDisplay:10.37,2013-03-02 09:32:00,
2013-03-02 03:37:00,2.8,-8.3,30.20,ENE,63,0.0,0.0,59,0.00,CLR,,0.00,WeatherDisplay:10.37,2013-03-02 09:37:00,
2013-03-02 03:42:00,2.7,-8.4,30.20,ENE,63,0.0,0.0,59,0.00,CLR,,0.00,WeatherDisplay:10.37,2013-03-02 09:42:00,
2013-03-02 03:47:00,2.7,-8.4,30.20,ENE,63,0.0,0.0,59,0.00,CLR,,0.00,WeatherDisplay:10.37,2013-03-02 09:47:00,
2013-03-02 03:53:00,2.5,-8.6,30.20,ENE,63,0.0,0.0,59,0.00,CLR,,0.00,WeatherDisplay:10.37,2013-03-02 09:53:00,
2013-03-02 03:58:00,2.1,-8.9,30.20,ENE,63,0.0,0.0,59,0.00,CLR,,0.00,WeatherDisplay:10.37,2013-03-02 09:58:00,
2013-03-02 04:03:00,1.9,-9.1,30.20,ENE,63,0.0,0.0,59,0.00,CLR,,0.00,WeatherDisplay:10.37,2013-03-02 10:03:00,
2013-03-02 04:08:00,1.8,-9.3,30.20,ENE,63,0.0,0.0,59,0.00,CLR,,0.00,WeatherDisplay:10.37,2013-03-02 10:08:00,
2013-03-02 04:13:00,1.6,-9.5,30.20,ENE,63,0.0,0.0,59,0.00,CLR,,0.00,WeatherDisplay:10.37,2013-03-02 10:13:00,
2013-03-02 04:18:00,1.6,-9.5,30.20,ENE,63,0.0,0.0,59,0.00,CLR,,0.00,WeatherDisplay:10.37,2013-03-02 10:18:00,
2013-03-02 04:23:00,1.4,-9.6,30.20,ENE,63,0.0,0.0,59,0.00,CLR,,0.00,WeatherDisplay:10.37,2013-03-02 10:23:00,
2013-03-02 04:29:00,1.4,-9.6,30.20,ENE,63,0.0,0.0,59,0.00,CLR,,0.00,WeatherDisplay:10.37,2013-03-02 10:29:00,
2013-03-02 04:34:00,1.2,-9.8,30.20,ENE,63,0.0,0.0,59,0.00,CLR,,0.00,WeatherDisplay:10.37,2013-03-02 10:34:00,
2013-03-02 04:39:00,1.2,-9.8,30.20,ENE,63,0.0,0.0,59,0.00,CLR,,0.00,WeatherDisplay:10.37,2013-03-02 10:39:00,
2013-03-02 04:45:00,1.2,-9.8,30.20,ENE,63,0.0,0.0,59,0.00,CLR,,0.00,WeatherDisplay:10.37,2013-03-02 10:45:00,
2013-03-02 04:50:00,1.2,-9.8,30.23,ENE,63,0.0,0.0,59,0.00,CLR,,0.00,WeatherDisplay:10.37,2013-03-02 10:50:00,
2013-03-02 04:55:00,1.0,-10.0,30.23,ENE,63,0.0,0.0,59,0.00,CLR,,0.00,WeatherDisplay:10.37,2013-03-02 10:55:00,
2013-03-02 05:00:00,0.7,-10.3,30.23,ENE,63,0.0,0.0,59,0.00,CLR,,0.00,WeatherDisplay:10.37,2013-03-02 11:00:00,
2013-03-02 05:05:00,0.7,-10.3,30.23,ENE,63,0.0,0.0,59,0.00,CLR,,0.00,WeatherDisplay:10.37,2013-03-02 11:05:00,
2013-03-02 05:10:00,0.5,-10.5,30.23,ENE,63,0.0,0.0,59,0.00,CLR,,0.00,WeatherDisplay:10.37,2013-03-02 11:10:00,
2013-03-02 05:16:00,0.3,-10.7,30.23,ENE,63,0.0,0.0,59,0.00,CLR,,0.00,WeatherDisplay:10.37,2013-03-02 11:16:00,
2013-03-02 05:21:00,0.3,-10.7,30.23,ENE,63,0.0,0.0,59,0.00,CLR,,0.00,WeatherDisplay:10.37,2013-03-02 11:21:00,
2013-03-02 05:26:00,0.1,-10.8,30.23,ENE,63,0.0,0.0,59,0.00,CLR,,0.00,WeatherDisplay:10.37,2013-03-02 11:26:00,
2013-03-02 05:31:00,0.0,-11.0,30.23,ENE,63,0.0,0.0,59,0.00,CLR,,0.00,WeatherDisplay:10.37,2013-03-02 11:31:00,
2013-03-02 05:36:00,-0.2,-11.2,30.23,ENE,63,0.0,0.0,59,0.00,CLR,,0.00,WeatherDisplay:10.37,2013-03-02 11:36:00,
2013-03-02 05:41:00,-0.6,-11.5,30.23,ENE,63,0.0,0.0,59,0.00,CLR,,0.00,WeatherDisplay:10.37,2013-03-02 11:41:00,
2013-03-02 05:47:00,-0.6,-11.5,30.23,ENE,63,0.0,0.0,59,0.00,CLR,,0.00,WeatherDisplay:10.37,2013-03-02 11:47:00,
2013-03-02 05:52:00,-0.8,-11.7,30.23,ENE,63,0.0,0.0,59,0.00,CLR,,0.00,WeatherDisplay:10.37,2013-03-02 11:52:00,
2013-03-02 05:57:00,-0.9,-11.8,30.23,ENE,63,0.0,0.0,59,0.00,CLR,,0.00,WeatherDisplay:10.37,2013-03-02 11:57:00,
2013-03-02 06:02:00,-0.9,-11.8,30.23,ENE,63,0.0,0.0,59,0.00,CLR,,0.00,WeatherDisplay:10.37,2013-03-02 12:02:00,
2013-03-02 06:07:00,-0.9,-11.8,30.23,ENE,63,0.0,0.0,59,0.00,CLR,,0.00,WeatherDisplay:10.37,2013-03-02 12:07:00,
2013-03-02 06:12:00,-1.1,-12.0,30.23,ENE,63,0.0,0.0,59,0.00,CLR,,0.00,WeatherDisplay:10.37,2013-03-02 12:12:00,
2013-03-02 06:17:00,-1.3,-12.2,30.23,ENE,63,0.0,0.0,59,0.00,CLR,,0.00,WeatherDisplay:10.37,2013-03-02 12:17:00,
2013-03-02 06:22:00,-1.5,-12.4,30.23,ENE,63,0.0,0.0,59,0.00,CLR,,0.00,WeatherDisplay:10.37,2013-03-02 12:22:00,
2013-03-02 06:27:00,-1.7,-12.5,30.23,ENE,63,0.0,0.0,59,0.00,CLR,,0.00,WeatherDisplay:10.37,2013-03-02 12:27:00,
2013-03-02 06:33:00,-1.8,-12.7,30.20,ENE,63,0.0,0.0,59,0.00,CLR,,0.00,WeatherDisplay:10.37,2013-03-02 12:33:00,
2013-03-02 06:38:00,-1.8,-12.7,30.20,ENE,63,0.0,0.0,59,0.00,CLR,,0.00,WeatherDisplay:10.37,2013-03-02 12:38:00,
2013-03-02 06:43:00,-1.8,-12.7,30.20,ENE,63,0.0,0.0,59,0.00,CLR,,0.00,WeatherDisplay:10.37,2013-03-02 12:43:00,
2013-03-02 06:48:00,-1.8,-12.7,30.20,ENE,63,0.0,0.0,59,0.00,CLR,,0.00,WeatherDisplay:10.37,2013-03-02 12:48:00,
2013-03-02 06:54:00,-1.8,-12.7,30.20,ENE,63,0.0,0.0,59,0.00,CLR,,0.00,WeatherDisplay:10.37,2013-03-02 12:54:00,
2013-03-02 06:59:00,-1.8,-12.7,30.20,ENE,63,0.0,0.0,59,0.00,CLR,,0.00,WeatherDisplay:10.37,2013-03-02 12:59:00,
2013-03-02 07:04:00,-1.8,-12.7,30.20,ENE,63,0.0,0.0,59,0.00,CLR,,0.00,WeatherDisplay:10.37,2013-03-02 13:04:00,
2013-03-02 07:09:00,-1.8,-12.7,30.20,ENE,63,0.0,0.0,59,0.00,CLR,,0.00,WeatherDisplay:10.37,2013-03-02 13:09:00,
2013-03-02 07:14:00,-1.5,-12.4,30.20,ENE,63,0.0,0.0,59,0.00,CLR,,0.00,WeatherDisplay:10.37,2013-03-02 13:14:00,
2013-03-02 07:20:00,-0.9,-11.8,30.20,ENE,63,0.0,0.0,59,0.00,CLR,,0.00,WeatherDisplay:10.37,2013-03-02 13:20:00,
2013-03-02 07:25:00,-0.4,-11.3,30.20,ENE,63,0.0,0.0,59,0.00,CLR,,0.00,WeatherDisplay:10.37,2013-03-02 13:25:00,
2013-03-02 07:30:00,0.3,-10.7,30.20,ENE,63,0.0,0.0,59,0.00,CLR,,0.00,WeatherDisplay:10.37,2013-03-02 13:30:00,
2013-03-02 07:35:00,1.4,-9.6,30.20,ENE,63,0.0,0.0,59,0.00,CLR,,0.00,WeatherDisplay:10.37,2013-03-02 13:35:00,
2013-03-02 07:40:00,2.3,-8.8,30.20,ENE,63,0.0,0.0,59,0.00,CLR,,0.00,WeatherDisplay:10.37,2013-03-02 13:40:00,
2013-03-02 07:45:00,3.2,-7.9,30.20,ENE,63,0.0,0.0,59,0.00,CLR,,0.00,WeatherDisplay:10.37,2013-03-02 13:45:00,
2013-03-02 07:50:00,4.1,-7.1,30.23,ENE,63,0.0,0.0,59,0.00,CLR,,0.00,WeatherDisplay:10.37,2013-03-02 13:50:00,
2013-03-02 07:56:00,5.2,-6.1,30.23,ENE,63,0.0,0.0,59,0.00,CLR,,0.00,WeatherDisplay:10.37,2013-03-02 13:56:00,
2013-03-02 08:01:00,5.9,-5.4,30.23,ENE,63,0.0,0.0,59,0.00,CLR,,0.00,WeatherDisplay:10.37,2013-03-02 14:01:00,
2013-03-02 08:06:00,6.8,-4.5,30.23,ENE,63,0.0,0.0,59,0.00,CLR,,0.00,WeatherDisplay:10.37,2013-03-02 14:06:00,
2013-03-02 08:11:00,7.2,-4.2,30.23,ENE,63,0.0,0.0,59,0.00,CLR,,0.00,WeatherDisplay:10.37,2013-03-02 14:11:00,
2013-03-02 08:16:00,7.7,-3.7,30.23,ENE,63,0.0,0.0,59,0.00,CLR,,0.00,WeatherDisplay:10.37,2013-03-02 14:16:00,
2013-03-02 08:21:00,9.0,-2.5,30.20,ENE,63,0.0,0.0,59,0.00,CLR,,0.00,WeatherDisplay:10.37,2013-03-02 14:21:00,
2013-03-02 08:27:00,10.0,-1.5,30.20,ENE,64,0.0,0.0,59,0.00,CLR,,0.00,WeatherDisplay:10.37,2013-03-02 14:27:00,
2013-03-02 08:32:00,11.1,-0.4,30.20,North,353,0.0,0.0,59,0.00,CLR,,0.00,WeatherDisplay:10.37,2013-03-02 14:32:00,
2013-03-02 08:37:00,11.7,0.1,30.23,NNW,335,0.0,0.0,59,0.00,CLR,,0.00,WeatherDisplay:10.37,2013-03-02 14:37:00,
2013-03-02 08:42:00,12.0,0.4,30.23,NE,37,0.0,0.0,59,0.00,CLR,,0.00,WeatherDisplay:10.37,2013-03-02 14:42:00,
2013-03-02 08:47:00,12.6,0.9,30.20,NW,326,0.0,0.0,59,0.00,CLR,,0.00,WeatherDisplay:10.37,2013-03-02 14:47:00,
2013-03-02 08:52:00,12.9,1.3,30.20,NNW,333,3.5,3.5,59,0.00,CLR,,0.00,WeatherDisplay:10.37,2013-03-02 14:52:00,
2013-03-02 08:57:00,13.3,1.6,30.20,NW,325,0.0,0.0,59,0.00,CLR,,0.00,WeatherDisplay:10.37,2013-03-02 14:57:00,
2013-03-02 09:03:00,13.8,2.1,30.20,NW,325,0.0,0.0,59,0.00,CLR,,0.00,WeatherDisplay:10.37,2013-03-02 15:03:00,
2013-03-02 09:08:00,14.5,4.9,30.20,NNW,330,3.5,0.0,65,0.00,CLR,,0.00,WeatherDisplay:10.37,2013-03-02 15:08:00,
2013-03-02 09:13:00,15.3,5.6,30.20,East,89,2.3,0.0,65,0.00,CLR,,0.00,WeatherDisplay:10.37,2013-03-02 15:13:00,
2013-03-02 09:18:00,16.0,5.9,30.20,NNE,29,0.0,0.0,64,0.00,CLR,,0.00,WeatherDisplay:10.37,2013-03-02 15:18:00,
2013-03-02 09:24:00,16.9,6.8,30.20,East,94,3.5,3.5,64,0.00,CLR,,0.00,WeatherDisplay:10.37,2013-03-02 15:24:00,
2013-03-02 09:29:00,17.6,7.5,30.20,East,84,3.5,3.5,64,0.00,CLR,,0.00,WeatherDisplay:10.37,2013-03-02 15:29:00,
2013-03-02 09:34:00,18.1,7.6,30.20,ENE,67,3.5,3.5,63,0.00,CLR,,0.00,WeatherDisplay:10.37,2013-03-02 15:34:00,
2013-03-02 09:40:00,18.9,8.0,30.20,East,89,3.5,3.5,62,0.00,CLR,,0.00,WeatherDisplay:10.37,2013-03-02 15:40:00,
2013-03-02 09:45:00,19.4,7.8,30.20,East,101,4.6,4.6,60,0.00,CLR,,0.00,WeatherDisplay:10.37,2013-03-02 15:45:00,
2013-03-02 09:50:00,19.8,7.7,30.20,NE,51,3.5,3.5,59,0.00,CLR,,0.00,WeatherDisplay:10.37,2013-03-02 15:50:00,
2013-03-02 09:55:00,20.3,7.9,30.20,North,6,4.6,4.6,58,0.00,CLR,,0.00,WeatherDisplay:10.37,2013-03-02 15:55:00,
2013-03-02 10:00:00,20.8,8.0,30.20,NNE,25,5.8,5.8,57,0.00,CLR,,0.00,WeatherDisplay:10.37,2013-03-02 16:00:00,
2013-03-02 10:05:00,21.6,8.3,30.20,North,6,3.5,0.0,56,0.00,CLR,,0.00,WeatherDisplay:10.37,2013-03-02 16:05:00,
2013-03-02 10:11:00,22.3,8.5,30.20,NNW,345,5.8,5.8,55,0.00,CLR,,0.00,WeatherDisplay:10.37,2013-03-02 16:11:00,
2013-03-02 10:16:00,22.8,8.6,30.20,NNW,328,4.6,4.6,54,0.00,CLR,,0.00,WeatherDisplay:10.37,2013-03-02 16:16:00,
2013-03-02 10:21:00,23.4,9.1,30.20,North,357,3.5,3.5,54,0.00,CLR,,0.00,WeatherDisplay:10.37,2013-03-02 16:21:00,
2013-03-02 10:26:00,24.3,9.6,30.20,NNW,337,3.5,3.5,53,0.00,CLR,,0.00,WeatherDisplay:10.37,2013-03-02 16:26:00,
2013-03-02 10:32:00,24.4,9.7,30.20,NW,307,3.5,3.5,53,0.00,CLR,,0.00,WeatherDisplay:10.37,2013-03-02 16:32:00,
2013-03-02 10:37:00,24.6,9.9,30.20,NNW,336,3.5,3.5,53,0.00,CLR,,0.00,WeatherDisplay:10.37,2013-03-02 16:37:00,
2013-03-02 10:42:00,25.2,10.0,30.20,East,98,5.8,5.8,52,0.00,CLR,,0.00,WeatherDisplay:10.37,2013-03-02 16:42:00,
2013-03-02 10:47:00,25.3,10.1,30.20,North,4,5.8,5.8,52,0.00,CLR,,0.00,WeatherDisplay:10.37,2013-03-02 16:47:00,
2013-03-02 10:53:00,25.7,10.5,30.20,NW,313,4.0,4.0,52,0.00,CLR,,0.00,WeatherDisplay:10.37,2013-03-02 16:53:00,
2013-03-02 10:58:00,25.7,10.5,30.20,North,11,3.5,3.5,52,0.00,CLR,,0.00,WeatherDisplay:10.37,2013-03-02 16:58:00,
2013-03-02 11:03:00,25.9,10.6,30.17,NW,312,5.8,5.8,52,0.00,CLR,,0.00,WeatherDisplay:10.37,2013-03-02 17:03:00,
2013-03-02 11:08:00,26.1,10.8,30.17,ESE,107,5.8,5.8,52,0.00,CLR,,0.00,WeatherDisplay:10.37,2013-03-02 17:08:00,
2013-03-02 11:13:00,26.4,11.2,30.17,NNE,26,5.8,5.8,52,0.00,CLR,,0.00,WeatherDisplay:10.37,2013-03-02 17:13:00,
2013-03-02 11:18:00,26.6,11.3,30.17,NNW,341,3.5,4.0,52,0.00,CLR,,0.00,WeatherDisplay:10.37,2013-03-02 17:18:00,
2013-03-02 11:23:00,26.6,11.3,30.17,NNW,338,5.8,5.8,52,0.00,CLR,,0.00,WeatherDisplay:10.37,2013-03-02 17:23:00,
2013-03-02 11:28:00,26.6,10.9,30.17,NNW,341,4.6,4.6,51,0.00,CLR,,0.00,WeatherDisplay:10.37,2013-03-02 17:28:00,
2013-03-02 11:34:00,26.6,10.9,30.17,NW,324,5.8,5.8,51,0.00,CLR,,0.00,WeatherDisplay:10.37,2013-03-02 17:34:00,
2013-03-02 11:39:00,26.6,10.9,30.17,NNW,335,3.5,0.0,51,0.00,CLR,,0.00,WeatherDisplay:10.37,2013-03-02 17:39:00,
2013-03-02 11:44:00,27.0,11.2,30.17,West,280,3.5,3.5,51,0.00,CLR,,0.00,WeatherDisplay:10.37,2013-03-02 17:44:00,
2013-03-02 11:49:00,27.1,11.4,30.17,WNW,291,3.5,3.5,51,0.00,CLR,,0.00,WeatherDisplay:10.37,2013-03-02 17:49:00,
2013-03-02 11:54:00,27.3,11.5,30.17,WSW,239,5.8,5.8,51,0.00,CLR,,0.00,WeatherDisplay:10.37,2013-03-02 17:54:00,
2013-03-02 12:00:00,27.7,11.9,30.17,NW,313,4.6,4.6,51,0.00,CLR,,0.00,WeatherDisplay:10.37,2013-03-02 18:00:00,
2013-03-02 12:05:00,27.7,11.9,30.17,West,277,3.5,3.5,51,0.00,CLR,,0.00,WeatherDisplay:10.37,2013-03-02 18:05:00,
2013-03-02 12:10:00,27.9,12.1,30.17,SSW,204,4.6,4.6,51,0.00,CLR,,0.00,WeatherDisplay:10.37,2013-03-02 18:10:00,
2013-03-02 12:15:00,27.9,12.1,30.17,WNW,283,5.8,5.8,51,0.00,CLR,,0.00,WeatherDisplay:10.37,2013-03-02 18:15:00,
2013-03-02 12:20:00,28.0,12.2,30.17,WSW,250,3.5,3.5,51,0.00,CLR,,0.00,WeatherDisplay:10.37,2013-03-02 18:20:00,
2013-03-02 12:26:00,28.0,12.2,30.17,SW,236,3.5,3.5,51,0.00,CLR,,0.00,WeatherDisplay:10.37,2013-03-02 18:26:00,
2013-03-02 12:31:00,28.2,12.4,30.17,NNW,331,2.3,2.3,51,0.00,CLR,,0.00,WeatherDisplay:10.37,2013-03-02 18:31:00,
2013-03-02 12:37:00,28.6,12.3,30.15,West,274,3.5,0.0,50,0.00,CLR,,0.00,WeatherDisplay:10.37,2013-03-02 18:37:00,
2013-03-02 12:42:00,29.1,12.8,30.15,WNW,295,3.5,3.5,50,0.00,CLR,,0.00,WeatherDisplay:10.37,2013-03-02 18:42:00,
2013-03-02 12:47:00,29.5,12.2,30.15,WNW,286,3.5,3.5,48,0.00,CLR,,0.00,WeatherDisplay:10.37,2013-03-02 18:47:00,
2013-03-02 12:52:00,29.8,12.5,30.15,West,280,3.5,3.5,48,0.00,CLR,,0.00,WeatherDisplay:10.37,2013-03-02 18:52:00,
2013-03-02 12:57:00,30.0,12.7,30.15,SW,226,3.6,3.6,48,0.00,CLR,,0.00,WeatherDisplay:10.37,2013-03-02 18:57:00,
2013-03-02 13:03:00,29.8,12.5,30.15,WNW,284,3.5,0.0,48,0.00,CLR,,0.00,WeatherDisplay:10.37,2013-03-02 19:03:00,
2013-03-02 13:08:00,30.0,12.7,30.15,NNW,330,3.1,0.0,48,0.00,CLR,,0.00,WeatherDisplay:10.37,2013-03-02 19:08:00,
2013-03-02 13:13:00,30.2,12.8,30.15,West,272,4.9,0.0,48,0.00,CLR,,0.00,WeatherDisplay:10.37,2013-03-02 19:13:00,
2013-03-02 13:18:00,30.4,13.0,30.15,WSW,243,5.8,5.8,48,0.00,CLR,,0.00,WeatherDisplay:10.37,2013-03-02 19:18:00,
2013-03-02 13:23:00,29.8,12.5,30.15,WSW,249,5.8,5.8,48,0.00,CLR,,0.00,WeatherDisplay:10.37,2013-03-02 19:23:00,
2013-03-02 13:29:00,29.5,12.2,30.15,NE,34,5.8,5.8,48,0.00,CLR,,0.00,WeatherDisplay:10.37,2013-03-02 19:29:00,
2013-03-02 13:34:00,29.3,12.0,30.15,WSW,250,2.3,2.3,48,0.00,CLR,,0.00,WeatherDisplay:10.37,2013-03-02 19:34:00,
2013-03-02 13:39:00,29.7,12.3,30.15,NW,311,3.5,3.5,48,0.00,CLR,,0.00,WeatherDisplay:10.37,2013-03-02 19:39:00,
2013-03-02 13:44:00,30.0,12.7,30.15,West,259,4.0,0.0,48,0.00,CLR,,0.00,WeatherDisplay:10.37,2013-03-02 19:44:00,
2013-03-02 13:50:00,30.2,12.8,30.15,North,357,3.5,3.5,48,0.00,CLR,,0.00,WeatherDisplay:10.37,2013-03-02 19:50:00,
2013-03-02 13:55:00,30.4,13.0,30.15,West,259,3.5,3.5,48,0.00,CLR,,0.00,WeatherDisplay:10.37,2013-03-02 19:55:00,
2013-03-02 14:00:00,30.4,13.0,30.15,North,353,2.3,0.0,48,0.00,CLR,,0.00,WeatherDisplay:10.37,2013-03-02 20:00:00,
2013-03-02 14:05:00,30.6,13.2,30.15,NE,51,3.5,3.5,48,0.00,CLR,,0.00,WeatherDisplay:10.37,2013-03-02 20:05:00,
2013-03-02 14:11:00,30.6,11.7,30.15,WNW,290,2.7,2.7,45,0.00,CLR,,0.00,WeatherDisplay:10.37,2013-03-02 20:11:00,
2013-03-02 14:16:00,30.7,13.3,30.15,NW,305,3.5,3.5,48,0.00,CLR,,0.00,WeatherDisplay:10.37,2013-03-02 20:16:00,
2013-03-02 14:21:00,30.7,13.3,30.15,SW,220,3.5,3.5,48,0.00,CLR,,0.00,WeatherDisplay:10.37,2013-03-02 20:21:00,
2013-03-02 14:26:00,30.9,13.5,30.15,WSW,258,4.9,0.0,48,0.00,CLR,,0.00,WeatherDisplay:10.37,2013-03-02 20:26:00,
2013-03-02 14:32:00,30.7,13.3,30.15,WSW,254,5.8,5.8,48,0.00,CLR,,0.00,WeatherDisplay:10.37,2013-03-02 20:32:00,
2013-03-02 14:37:00,30.6,13.2,30.12,SW,232,3.5,3.5,48,0.00,CLR,,0.00,WeatherDisplay:10.37,2013-03-02 20:37:00,
2013-03-02 14:42:00,30.7,13.3,30.12,West,269,3.5,3.5,48,0.00,CLR,,0.00,WeatherDisplay:10.37,2013-03-02 20:42:00,
2013-03-02 14:47:00,30.6,11.7,30.12,WNW,297,3.5,3.5,45,0.00,CLR,,0.00,WeatherDisplay:10.37,2013-03-02 20:47:00,
2013-03-02 14:53:00,30.2,11.4,30.12,WSW,253,8.1,8.1,45,0.00,CLR,,0.00,WeatherDisplay:10.37,2013-03-02 20:53:00,
2013-03-02 14:58:00,30.2,11.4,30.12,WSW,246,7.6,7.6,45,0.00,CLR,,0.00,WeatherDisplay:10.37,2013-03-02 20:58:00,
2013-03-02 15:03:00,30.2,11.4,30.15,WNW,284,5.8,5.8,45,0.00,CLR,,0.00,WeatherDisplay:10.37,2013-03-02 21:03:00,
2013-03-02 15:08:00,30.0,11.2,30.15,WSW,252,6.9,6.9,45,0.00,CLR,,0.00,WeatherDisplay:10.37,2013-03-02 21:08:00,
2013-03-02 15:13:00,29.8,11.1,30.15,West,273,5.8,5.8,45,0.00,CLR,,0.00,WeatherDisplay:10.37,2013-03-02 21:13:00,
2013-03-02 15:19:00,29.7,10.9,30.15,WNW,293,3.5,3.5,45,0.00,CLR,,0.00,WeatherDisplay:10.37,2013-03-02 21:19:00,
2013-03-02 15:24:00,29.7,10.9,30.15,WNW,303,3.5,3.5,45,0.00,CLR,,0.00,WeatherDisplay:10.37,2013-03-02 21:24:00,
2013-03-02 15:29:00,29.8,11.1,30.15,WNW,295,5.8,5.8,45,0.00,CLR,,0.00,WeatherDisplay:10.37,2013-03-02 21:29:00,
2013-03-02 15:35:00,29.8,11.1,30.15,WNW,303,5.8,5.8,45,0.00,CLR,,0.00,WeatherDisplay:10.37,2013-03-02 21:35:00,
2013-03-02 15:40:00,29.8,11.1,30.15,NW,325,5.8,5.8,45,0.00,CLR,,0.00,WeatherDisplay:10.37,2013-03-02 21:40:00,
2013-03-02 15:45:00,29.7,10.9,30.15,NW,322,3.5,3.5,45,0.00,CLR,,0.00,WeatherDisplay:10.37,2013-03-02 21:45:00,
2013-03-02 15:50:00,29.5,10.7,30.15,West,280,3.5,3.5,45,0.00,CLR,,0.00,WeatherDisplay:10.37,2013-03-02 21:50:00,
2013-03-02 15:56:00,29.5,10.7,30.15,NW,308,5.8,5.8,45,0.00,CLR,,0.00,WeatherDisplay:10.37,2013-03-02 21:56:00,
2013-03-02 16:01:00,29.1,10.4,30.15,WNW,298,4.5,4.5,45,0.00,CLR,,0.00,WeatherDisplay:10.37,2013-03-02 22:01:00,
2013-03-02 16:06:00,28.9,10.2,30.15,WNW,294,4.6,4.6,45,0.00,CLR,,0.00,WeatherDisplay:10.37,2013-03-02 22:06:00,
2013-03-02 16:11:00,28.8,10.1,30.15,WNW,303,3.6,3.6,45,0.00,CLR,,0.00,WeatherDisplay:10.37,2013-03-02 22:11:00,
2013-03-02 16:16:00,28.6,9.9,30.15,West,275,3.5,3.5,45,0.00,CLR,,0.00,WeatherDisplay:10.37,2013-03-02 22:16:00,
2013-03-02 16:22:00,28.2,10.1,30.12,WNW,293,4.6,4.6,46,0.00,CLR,,0.00,WeatherDisplay:10.37,2013-03-02 22:22:00,
2013-03-02 16:27:00,28.0,9.9,30.12,WNW,297,3.5,3.5,46,0.00,CLR,,0.00,WeatherDisplay:10.37,2013-03-02 22:27:00,
2013-03-02 16:32:00,27.9,9.7,30.12,West,272,3.5,0.0,46,0.00,CLR,,0.00,WeatherDisplay:10.37,2013-03-02 22:32:00,
2013-03-02 16:37:00,27.7,9.6,30.12,West,263,5.8,5.8,46,0.00,CLR,,0.00,WeatherDisplay:10.37,2013-03-02 22:37:00,
2013-03-02 16:42:00,27.5,9.4,30.12,WSW,243,3.5,3.5,46,0.00,CLR,,0.00,WeatherDisplay:10.37,2013-03-02 22:42:00,
2013-03-02 16:48:00,27.5,9.4,30.12,West,266,3.5,4.0,46,0.00,CLR,,0.00,WeatherDisplay:10.37,2013-03-02 22:48:00,
2013-03-02 16:53:00,27.1,9.1,30.12,WSW,253,3.5,3.6,46,0.00,CLR,,0.00,WeatherDisplay:10.37,2013-03-02 22:53:00,
2013-03-02 16:58:00,27.0,8.9,30.12,West,275,3.5,3.5,46,0.00,CLR,,0.00,WeatherDisplay:10.37,2013-03-02 22:58:00,
2013-03-02 17:03:00,26.6,8.6,30.12,WNW,282,3.5,0.0,46,0.00,CLR,,0.00,WeatherDisplay:10.37,2013-03-02 23:03:00,
2013-03-02 17:09:00,26.2,8.2,30.12,West,278,3.5,3.5,46,0.00,CLR,,0.00,WeatherDisplay:10.37,2013-03-02 23:09:00,
2013-03-02 17:14:00,26.1,8.1,30.12,WNW,290,3.5,3.5,46,0.00,CLR,,0.00,WeatherDisplay:10.37,2013-03-02 23:14:00,
2013-03-02 17:19:00,25.9,7.9,30.15,WNW,287,3.5,3.5,46,0.00,CLR,,0.00,WeatherDisplay:10.37,2013-03-02 23:19:00,
2013-03-02 17:25:00,25.5,7.6,30.15,WNW,299,4.0,4.0,46,0.00,CLR,,0.00,WeatherDisplay:10.37,2013-03-02 23:25:00,
2013-03-02 17:30:00,25.3,7.4,30.15,WNW,286,3.5,0.0,46,0.00,CLR,,0.00,WeatherDisplay:10.37,2013-03-02 23:30:00,
2013-03-02 17:35:00,25.0,7.1,30.12,WNW,283,0.0,0.0,46,0.00,CLR,,0.00,WeatherDisplay:10.37,2013-03-02 23:35:00,
2013-03-02 17:40:00,24.6,7.2,30.12,WNW,286,0.0,0.0,47,0.00,CLR,,0.00,WeatherDisplay:10.37,2013-03-02 23:40:00,
2013-03-02 17:46:00,24.3,6.9,30.12,WNW,289,0.0,0.0,47,0.00,CLR,,0.00,WeatherDisplay:10.37,2013-03-02 23:46:00,
2013-03-02 17:51:00,23.7,6.4,30.12,WNW,289,0.0,0.0,47,0.00,CLR,,0.00,WeatherDisplay:10.37,2013-03-02 23:51:00,
2013-03-02 17:56:00,23.2,5.9,30.12,WNW,289,0.0,0.0,47,0.00,CLR,,0.00,WeatherDisplay:10.37,2013-03-02 23:56:00,
2013-03-02 18:01:00,22.8,5.6,30.12,WNW,289,0.0,0.0,47,0.00,CLR,,0.00,WeatherDisplay:10.37,2013-03-03 00:01:00,
2013-03-02 18:06:00,22.3,5.1,30.12,WNW,289,0.0,0.0,47,0.00,CLR,,0.00,WeatherDisplay:10.37,2013-03-03 00:06:00,
2013-03-02 18:11:00,21.7,4.6,30.12,WNW,289,0.0,0.0,47,0.00,CLR,,0.00,WeatherDisplay:10.37,2013-03-03 00:11:00,
2013-03-02 18:16:00,21.4,4.2,30.12,WNW,289,0.0,0.0,47,0.00,CLR,,0.00,WeatherDisplay:10.37,2013-03-03 00:16:00,
2013-03-02 18:22:00,21.0,5.3,30.15,WNW,289,0.0,0.0,50,0.00,CLR,,0.00,WeatherDisplay:10.37,2013-03-03 00:22:00,
2013-03-02 18:27:00,20.7,4.9,30.15,WNW,289,0.0,0.0,50,0.00,CLR,,0.00,WeatherDisplay:10.37,2013-03-03 00:27:00,
2013-03-02 18:32:00,20.3,4.6,30.12,WNW,289,0.0,0.0,50,0.00,CLR,,0.00,WeatherDisplay:10.37,2013-03-03 00:32:00,
2013-03-02 18:38:00,20.3,4.6,30.12,WNW,289,0.0,0.0,50,0.00,CLR,,0.00,WeatherDisplay:10.37,2013-03-03 00:38:00,
2013-03-02 18:43:00,19.9,4.3,30.12,WNW,289,0.0,0.0,50,0.00,CLR,,0.00,WeatherDisplay:10.37,2013-03-03 00:43:00,
2013-03-02 18:48:00,19.8,4.1,30.12,WNW,289,0.0,0.0,50,0.00,CLR,,0.00,WeatherDisplay:10.37,2013-03-03 00:48:00,
2013-03-02 18:54:00,19.6,3.9,30.12,West,259,0.0,0.0,50,0.00,CLR,,0.00,WeatherDisplay:10.37,2013-03-03 00:54:00,
2013-03-02 18:59:00,19.2,4.9,30.12,West,259,0.0,0.0,53,0.00,CLR,,0.00,WeatherDisplay:10.37,2013-03-03 00:59:00,
2013-03-02 19:04:00,18.9,4.5,30.12,West,259,0.0,0.0,53,0.00,CLR,,0.00,WeatherDisplay:10.37,2013-03-03 01:04:00,
2013-03-02 19:09:00,18.7,4.4,30.12,West,259,0.0,0.0,53,0.00,CLR,,0.00,WeatherDisplay:10.37,2013-03-03 01:09:00,
2013-03-02 19:14:00,18.7,4.4,30.12,SW,214,0.0,0.0,53,0.00,CLR,,0.00,WeatherDisplay:10.37,2013-03-03 01:14:00,
2013-03-02 19:19:00,18.5,4.2,30.12,SW,222,0.0,0.0,53,0.00,CLR,,0.00,WeatherDisplay:10.37,2013-03-03 01:19:00,
2013-03-02 19:25:00,18.5,4.2,30.12,SW,215,0.0,0.0,53,0.00,CLR,,0.00,WeatherDisplay:10.37,2013-03-03 01:25:00,
2013-03-02 19:30:00,18.9,4.5,30.12,SW,215,0.0,0.0,53,0.00,CLR,,0.00,WeatherDisplay:10.37,2013-03-03 01:30:00,
2013-03-02 19:35:00,18.9,4.5,30.12,SW,215,0.0,0.0,53,0.00,CLR,,0.00,WeatherDisplay:10.37,2013-03-03 01:35:00,
2013-03-02 19:40:00,19.0,4.7,30.12,SW,215,0.0,0.0,53,0.00,CLR,,0.00,WeatherDisplay:10.37,2013-03-03 01:40:00,
2013-03-02 19:45:00,19.2,4.9,30.12,SW,215,0.0,0.0,53,0.00,CLR,,0.00,WeatherDisplay:10.37,2013-03-03 01:45:00,
2013-03-02 19:50:00,19.2,4.9,30.12,SW,215,0.0,0.0,53,0.00,CLR,,0.00,WeatherDisplay:10.37,2013-03-03 01:50:00,
2013-03-02 19:56:00,19.4,5.0,30.12,SW,215,0.0,0.0,53,0.00,CLR,,0.00,WeatherDisplay:10.37,2013-03-03 01:56:00,
2013-03-02 20:01:00,19.6,5.2,30.12,SW,215,0.0,0.0,53,0.00,CLR,,0.00,WeatherDisplay:10.37,2013-03-03 02:01:00,
2013-03-02 20:06:00,19.6,5.2,30.12,SW,215,0.0,0.0,53,0.00,CLR,,0.00,WeatherDisplay:10.37,2013-03-03 02:06:00,
2013-03-02 20:11:00,19.6,5.2,30.12,SW,215,0.0,0.0,53,0.00,CLR,,0.00,WeatherDisplay:10.37,2013-03-03 02:11:00,
2013-03-02 20:16:00,19.6,5.2,30.12,SW,215,0.0,0.0,53,0.00,CLR,,0.00,WeatherDisplay:10.37,2013-03-03 02:16:00,
2013-03-02 20:21:00,19.4,5.0,30.12,SW,215,0.0,0.0,53,0.00,CLR,,0.00,WeatherDisplay:10.37,2013-03-03 02:21:00,
2013-03-02 20:26:00,19.4,5.0,30.12,SW,215,0.0,0.0,53,0.00,CLR,,0.00,WeatherDisplay:10.37,2013-03-03 02:26:00,
2013-03-02 20:32:00,19.2,5.3,30.12,SW,215,0.0,0.0,54,0.00,CLR,,0.00,WeatherDisplay:10.37,2013-03-03 02:32:00,
2013-03-02 20:37:00,19.0,5.1,30.12,SW,215,0.0,0.0,54,0.00,CLR,,0.00,WeatherDisplay:10.37,2013-03-03 02:37:00,
2013-03-02 20:42:00,18.7,4.8,30.12,SW,215,0.0,0.0,54,0.00,CLR,,0.00,WeatherDisplay:10.37,2013-03-03 02:42:00,
2013-03-02 20:47:00,18.5,4.6,30.12,SW,215,0.0,0.0,54,0.00,CLR,,0.00,WeatherDisplay:10.37,2013-03-03 02:47:00,
2013-03-02 20:52:00,18.3,4.4,30.12,SW,215,0.0,0.0,54,0.00,CLR,,0.00,WeatherDisplay:10.37,2013-03-03 02:52:00,
2013-03-02 20:57:00,18.1,4.3,30.12,SW,215,0.0,0.0,54,0.00,CLR,,0.00,WeatherDisplay:10.37,2013-03-03 02:57:00,
2013-03-02 21:02:00,18.0,4.1,30.12,SW,215,0.0,0.0,54,0.00,CLR,,0.00,WeatherDisplay:10.37,2013-03-03 03:02:00,
2013-03-02 21:07:00,18.0,4.1,30.12,SW,215,0.0,0.0,54,0.00,CLR,,0.00,WeatherDisplay:10.37,2013-03-03 03:07:00,
2013-03-02 21:13:00,17.8,3.9,30.12,SW,215,0.0,0.0,54,0.00,CLR,,0.00,WeatherDisplay:10.37,2013-03-03 03:13:00,
2013-03-02 21:18:00,17.6,4.2,30.09,SW,215,0.0,0.0,55,0.00,CLR,,0.00,WeatherDisplay:10.37,2013-03-03 03:18:00,
2013-03-02 21:23:00,17.6,4.2,30.09,SW,215,0.0,0.0,55,0.00,CLR,,0.00,WeatherDisplay:10.37,2013-03-03 03:23:00,
2013-03-02 21:28:00,17.4,4.0,30.09,SW,215,0.0,0.0,55,0.00,CLR,,0.00,WeatherDisplay:10.37,2013-03-03 03:28:00,
2013-03-02 21:34:00,17.1,3.6,30.09,SW,215,0.0,0.0,55,0.00,CLR,,0.00,WeatherDisplay:10.37,2013-03-03 03:34:00,
2013-03-02 21:39:00,16.9,3.5,30.09,SW,215,0.0,0.0,55,0.00,CLR,,0.00,WeatherDisplay:10.37,2013-03-03 03:39:00,
2013-03-02 21:44:00,16.5,3.1,30.09,SW,215,0.0,0.0,55,0.00,CLR,,0.00,WeatherDisplay:10.37,2013-03-03 03:44:00,
2013-03-02 21:49:00,16.0,2.6,30.09,SW,215,0.0,0.0,55,0.00,CLR,,0.00,WeatherDisplay:10.37,2013-03-03 03:49:00,
2013-03-02 21:55:00,15.6,2.3,30.09,SW,215,0.0,0.0,55,0.00,CLR,,0.00,WeatherDisplay:10.37,2013-03-03 03:55:00,
2013-03-02 22:00:00,15.1,2.2,30.09,SW,215,0.0,0.0,56,0.00,CLR,,0.00,WeatherDisplay:10.37,2013-03-03 04:00:00,
2013-03-02 22:05:00,14.7,1.8,30.09,SW,215,0.0,0.0,56,0.00,CLR,,0.00,WeatherDisplay:10.37,2013-03-03 04:05:00,
2013-03-02 22:10:00,14.4,1.5,30.09,SW,215,0.0,0.0,56,0.00,CLR,,0.00,WeatherDisplay:10.37,2013-03-03 04:10:00,
2013-03-02 22:15:00,13.8,1.0,30.09,SW,215,0.0,0.0,56,0.00,CLR,,0.00,WeatherDisplay:10.37,2013-03-03 04:15:00,
2013-03-02 22:21:00,13.5,0.7,30.09,SW,215,0.0,0.0,56,0.00,CLR,,0.00,WeatherDisplay:10.37,2013-03-03 04:21:00,
2013-03-02 22:26:00,13.1,0.3,30.09,SW,215,0.0,0.0,56,0.00,CLR,,0.00,WeatherDisplay:10.37,2013-03-03 04:26:00,
2013-03-02 22:31:00,12.7,0.0,30.09,SW,215,0.0,0.0,56,0.00,CLR,,0.00,WeatherDisplay:10.37,2013-03-03 04:31:00,
2013-03-02 22:36:00,12.6,-0.2,30.09,SW,215,0.0,0.0,56,0.00,CLR,,0.00,WeatherDisplay:10.37,2013-03-03 04:36:00,
2013-03-02 22:41:00,12.2,-0.5,30.09,SW,215,0.0,0.0,56,0.00,CLR,,0.00,WeatherDisplay:10.37,2013-03-03 04:41:00,
2013-03-02 22:46:00,11.8,-0.9,30.09,SW,215,0.0,0.0,56,0.00,CLR,,0.00,WeatherDisplay:10.37,2013-03-03 04:46:00,
2013-03-02 22:52:00,11.5,-1.2,30.09,SW,215,0.0,0.0,56,0.00,CLR,,0.00,WeatherDisplay:10.37,2013-03-03 04:52:00,
2013-03-02 22:57:00,11.1,-1.5,30.09,SW,215,0.0,0.0,56,0.00,CLR,,0.00,WeatherDisplay:10.37,2013-03-03 04:57:00,
2013-03-02 23:00:00,10.9,-1.7,30.09,SW,215,0.0,0.0,56,0.00,CLR,,0.00,WeatherDisplay:10.37,2013-03-03 05:00:00,
2013-03-02 23:05:00,10.8,-1.9,30.09,SW,215,0.0,0.0,56,0.00,CLR,,0.00,WeatherDisplay:10.37,2013-03-03 05:05:00,
2013-03-02 23:10:00,10.4,-2.2,30.09,East,100,3.5,0.0,56,0.00,CLR,,0.00,WeatherDisplay:10.37,2013-03-03 05:10:00,
2013-03-02 23:12:00,10.4,-2.2,30.09,East,100,3.5,0.0,56,0.00,CLR,,0.00,WeatherDisplay:10.37,2013-03-03 05:12:00,
2013-03-02 23:17:00,10.4,-2.2,30.09,East,100,2.3,0.0,56,0.00,CLR,,0.00,WeatherDisplay:10.37,2013-03-03 05:17:00,
2013-03-02 23:22:00,10.2,-2.4,30.09,East,100,0.0,0.0,56,0.00,CLR,,0.00,WeatherDisplay:10.37,2013-03-03 05:22:00,
2013-03-02 23:27:00,10.0,-2.6,30.09,East,100,0.0,0.0,56,0.00,CLR,,0.00,WeatherDisplay:10.37,2013-03-03 05:27:00,
2013-03-02 23:32:00,9.7,-2.9,30.09,East,100,0.0,0.0,56,0.00,CLR,,0.00,WeatherDisplay:10.37,2013-03-03 05:32:00,
2013-03-02 23:37:00,9.5,-3.1,30.09,East,100,0.0,0.0,56,0.00,CLR,,0.00,WeatherDisplay:10.37,2013-03-03 05:37:00,
2013-03-02 23:42:00,9.3,-3.2,30.09,East,100,0.0,0.0,56,0.00,CLR,,0.00,WeatherDisplay:10.37,2013-03-03 05:42:00,
2013-03-02 23:47:00,9.1,-3.4,30.06,East,100,0.0,0.0,56,0.00,CLR,,0.00,WeatherDisplay:10.37,2013-03-03 05:47:00,
2013-03-02 23:53:00,9.0,-3.6,30.06,East,100,0.0,0.0,56,0.00,CLR,,0.00,WeatherDisplay:10.37,2013-03-03 05:53:00,
2013-03-02 23:58:00,8.6,-3.9,30.06,East,100,0.0,0.0,56,0.00,CLR,,0.00,WeatherDisplay:10.37,2013-03-03 05:58:00,